This is the latest recevied weather packets stored in our database for station/object W3EJE-13. If no packets are shown the sender has not sent any weather packets the latest 10 day(s).
| Time | Temp. | Humidity | Pressure | Rain* | Wind** | Luminosity | Snow |
|---|---|---|---|---|---|---|---|
| 1777841513 | 12.22° C | 48% | 1016.1 hPa | 0 mm | - | 301 W/m² | - |
| 1777841209 | 12.78° C | 48% | 1016.1 hPa | 0 mm | - | 517 W/m² | - |
| 1777840907 | 12.22° C | 50% | 1015.7 hPa | 0 mm | - | 547 W/m² | - |
| 1777840604 | 11.67° C | 51% | 1016 hPa | 0 mm | - | 547 W/m² | - |
| 1777840302 | 11.67° C | 50% | 1016 hPa | 0 mm | - | 458 W/m² | - |
| 1777839998 | 12.22° C | 48% | 1016.1 hPa | 0 mm | - | 556 W/m² | - |
| 1777839697 | 11.67° C | 47% | 1016.1 hPa | 0 mm | - | 586 W/m² | - |
| 1777839394 | 12.22° C | 49% | 1016.2 hPa | 0 mm | - | 549 W/m² | - |
| 1777839092 | 12.22° C | 48% | 1016 hPa | 0 mm | - | 617 W/m² | - |
| 1777838787 | 11.67° C | 49% | 1016.4 hPa | 0 mm | - | 177 W/m² | - |
| 1777838484 | 12.22° C | 51% | 1016.3 hPa | 0 mm | - | 673 W/m² | - |
| 1777838181 | 11.11° C | 47% | 1016.1 hPa | 0 mm | - | 192 W/m² | - |
| 1777837878 | 11.67° C | 49% | 1016.3 hPa | 0 mm | - | 659 W/m² | - |
| 1777837575 | 11.67° C | 49% | 1016.3 hPa | 0 mm | - | 672 W/m² | - |
| 1777837270 | 11.67° C | 49% | 1016.5 hPa | 0 mm | - | 674 W/m² | - |
| 1777836967 | 12.22° C | 51% | 1016.7 hPa | 0 mm | - | 648 W/m² | - |
| 1777836663 | 11.67° C | 51% | 1016.6 hPa | 0 mm | - | 759 W/m² | - |
| 1777836359 | 11.11° C | 47% | 1016.9 hPa | 0 mm | - | 262 W/m² | - |
| 1777836054 | 11.67° C | 49% | 1016.8 hPa | 0 mm | - | 324 W/m² | - |
| 1777835751 | 10.56° C | 50% | 1016.5 hPa | 0 mm | - | 806 W/m² | - |
| 1777835448 | 10.56° C | 48% | 1016.6 hPa | 0 mm | - | 229 W/m² | - |
| 1777835145 | 11.67° C | 50% | 1016.8 hPa | 0 mm | - | 220 W/m² | - |
| 1777834843 | 11.67° C | 51% | 1016.6 hPa | 0 mm | - | 705 W/m² | - |
| 1777834539 | 11.67° C | 51% | 1016.7 hPa | 0 mm | - | 715 W/m² | - |
| 1777834238 | 10.56° C | 53% | 1016.9 hPa | 0 mm | - | 760 W/m² | - |
* Rain latest hour (hover to see other rain measurements)
** Current wind speed in m/s (hover to see current wind gust speed)